sensor_id;sensor_type;location;lat;lon;timestamp;P1;durP1;ratioP1;P2;durP2;ratioP2
6420;SDS011;3243;50.958;7.012;2023-04-21T00:01:25;21.37;;;17.67;;
6420;SDS011;3243;50.958;7.012;2023-04-21T00:03:52;20.03;;;17.03;;
6420;SDS011;3243;50.958;7.012;2023-04-21T00:06:20;23.83;;;18.60;;
6420;SDS011;3243;50.958;7.012;2023-04-21T00:08:48;20.13;;;17.70;;
6420;SDS011;3243;50.958;7.012;2023-04-21T00:11:15;21.77;;;17.70;;
6420;SDS011;3243;50.958;7.012;2023-04-21T00:13:43;19.17;;;16.27;;
6420;SDS011;3243;50.958;7.012;2023-04-21T00:16:10;18.80;;;15.20;;
6420;SDS011;3243;50.958;7.012;2023-04-21T00:18:37;20.43;;;17.50;;
6420;SDS011;3243;50.958;7.012;2023-04-21T00:21:04;26.33;;;19.00;;
6420;SDS011;3243;50.958;7.012;2023-04-21T00:23:31;18.97;;;16.83;;
6420;SDS011;3243;50.958;7.012;2023-04-21T00:25:58;22.60;;;16.80;;
6420;SDS011;3243;50.958;7.012;2023-04-21T00:28:27;21.30;;;17.77;;
6420;SDS011;3243;50.958;7.012;2023-04-21T00:30:54;22.00;;;17.37;;
6420;SDS011;3243;50.958;7.012;2023-04-21T00:33:22;20.57;;;16.93;;
6420;SDS011;3243;50.958;7.012;2023-04-21T00:35:48;20.43;;;16.77;;
6420;SDS011;3243;50.958;7.012;2023-04-21T00:38:15;25.23;;;17.47;;
6420;SDS011;3243;50.958;7.012;2023-04-21T00:40:42;20.90;;;17.30;;
6420;SDS011;3243;50.958;7.012;2023-04-21T00:43:08;20.67;;;16.73;;
6420;SDS011;3243;50.958;7.012;2023-04-21T00:45:36;24.00;;;19.13;;
6420;SDS011;3243;50.958;7.012;2023-04-21T00:48:03;21.87;;;17.43;;
6420;SDS011;3243;50.958;7.012;2023-04-21T00:50:29;22.77;;;18.83;;
6420;SDS011;3243;50.958;7.012;2023-04-21T00:52:57;21.57;;;17.50;;
6420;SDS011;3243;50.958;7.012;2023-04-21T00:55:24;22.83;;;18.10;;
6420;SDS011;3243;50.958;7.012;2023-04-21T00:57:51;23.83;;;19.20;;
6420;SDS011;3243;50.958;7.012;2023-04-21T01:00:20;24.60;;;19.50;;
6420;SDS011;3243;50.958;7.012;2023-04-21T01:02:47;23.67;;;19.87;;
6420;SDS011;3243;50.958;7.012;2023-04-21T01:05:14;22.73;;;18.40;;
6420;SDS011;3243;50.958;7.012;2023-04-21T01:07:43;23.27;;;18.77;;
6420;SDS011;3243;50.958;7.012;2023-04-21T01:10:10;23.07;;;18.77;;
6420;SDS011;3243;50.958;7.012;2023-04-21T01:12:40;25.63;;;20.27;;
6420;SDS011;3243;50.958;7.012;2023-04-21T01:15:09;22.17;;;17.53;;
6420;SDS011;3243;50.958;7.012;2023-04-21T01:17:39;26.63;;;19.70;;
6420;SDS011;3243;50.958;7.012;2023-04-21T01:20:11;20.73;;;17.80;;
6420;SDS011;3243;50.958;7.012;2023-04-21T01:22:40;27.80;;;20.67;;
6420;SDS011;3243;50.958;7.012;2023-04-21T01:25:08;24.50;;;19.57;;
6420;SDS011;3243;50.958;7.012;2023-04-21T01:27:35;26.43;;;19.47;;
6420;SDS011;3243;50.958;7.012;2023-04-21T01:30:02;26.30;;;20.63;;
6420;SDS011;3243;50.958;7.012;2023-04-21T01:32:30;25.47;;;20.20;;
6420;SDS011;3243;50.958;7.012;2023-04-21T01:34:57;22.67;;;19.87;;
6420;SDS011;3243;50.958;7.012;2023-04-21T01:37:26;27.73;;;20.87;;
6420;SDS011;3243;50.958;7.012;2023-04-21T01:39:57;23.83;;;19.67;;
6420;SDS011;3243;50.958;7.012;2023-04-21T01:42:26;23.87;;;18.97;;
6420;SDS011;3243;50.958;7.012;2023-04-21T01:44:55;26.73;;;20.77;;
6420;SDS011;3243;50.958;7.012;2023-04-21T01:47:22;24.37;;;20.07;;
6420;SDS011;3243;50.958;7.012;2023-04-21T01:49:50;26.00;;;20.97;;
6420;SDS011;3243;50.958;7.012;2023-04-21T01:52:18;24.30;;;20.73;;
6420;SDS011;3243;50.958;7.012;2023-04-21T01:54:45;24.23;;;18.90;;
6420;SDS011;3243;50.958;7.012;2023-04-21T01:57:12;25.53;;;19.40;;
6420;SDS011;3243;50.958;7.012;2023-04-21T01:59:38;29.17;;;22.40;;
6420;SDS011;3243;50.958;7.012;2023-04-21T02:02:05;28.30;;;22.03;;
6420;SDS011;3243;50.958;7.012;2023-04-21T02:04:32;27.43;;;20.90;;
6420;SDS011;3243;50.958;7.012;2023-04-21T02:07:00;27.73;;;20.63;;
6420;SDS011;3243;50.958;7.012;2023-04-21T02:09:27;28.57;;;21.77;;
6420;SDS011;3243;50.958;7.012;2023-04-21T02:11:54;25.13;;;20.63;;
6420;SDS011;3243;50.958;7.012;2023-04-21T02:14:22;28.03;;;21.33;;
6420;SDS011;3243;50.958;7.012;2023-04-21T02:16:50;33.50;;;22.27;;
6420;SDS011;3243;50.958;7.012;2023-04-21T02:19:16;25.90;;;20.40;;
6420;SDS011;3243;50.958;7.012;2023-04-21T02:21:44;25.37;;;20.63;;
6420;SDS011;3243;50.958;7.012;2023-04-21T02:24:10;28.43;;;21.40;;
6420;SDS011;3243;50.958;7.012;2023-04-21T02:26:37;25.40;;;20.67;;
6420;SDS011;3243;50.958;7.012;2023-04-21T02:29:05;28.73;;;22.60;;
6420;SDS011;3243;50.958;7.012;2023-04-21T02:31:32;27.97;;;22.37;;
6420;SDS011;3243;50.958;7.012;2023-04-21T02:34:11;27.27;;;21.47;;
6420;SDS011;3243;50.958;7.012;2023-04-21T02:36:38;26.57;;;21.37;;
6420;SDS011;3243;50.958;7.012;2023-04-21T02:39:05;27.57;;;22.17;;
6420;SDS011;3243;50.958;7.012;2023-04-21T02:41:31;27.33;;;21.30;;
6420;SDS011;3243;50.958;7.012;2023-04-21T02:43:59;26.93;;;21.50;;
6420;SDS011;3243;50.958;7.012;2023-04-21T02:46:25;28.90;;;21.93;;
6420;SDS011;3243;50.958;7.012;2023-04-21T02:48:52;29.50;;;21.90;;
6420;SDS011;3243;50.958;7.012;2023-04-21T02:51:19;28.43;;;22.87;;
6420;SDS011;3243;50.958;7.012;2023-04-21T02:53:45;27.40;;;21.20;;
6420;SDS011;3243;50.958;7.012;2023-04-21T02:56:12;27.83;;;21.73;;
6420;SDS011;3243;50.958;7.012;2023-04-21T02:58:39;29.63;;;23.07;;
6420;SDS011;3243;50.958;7.012;2023-04-21T03:01:05;27.97;;;21.30;;
6420;SDS011;3243;50.958;7.012;2023-04-21T03:03:32;27.33;;;22.73;;
6420;SDS011;3243;50.958;7.012;2023-04-21T03:06:00;31.30;;;24.20;;
6420;SDS011;3243;50.958;7.012;2023-04-21T03:08:28;30.77;;;23.77;;
6420;SDS011;3243;50.958;7.012;2023-04-21T03:10:56;30.60;;;22.87;;
6420;SDS011;3243;50.958;7.012;2023-04-21T03:13:23;32.87;;;24.30;;
6420;SDS011;3243;50.958;7.012;2023-04-21T03:15:50;29.87;;;22.60;;
6420;SDS011;3243;50.958;7.012;2023-04-21T03:18:17;34.10;;;25.07;;
6420;SDS011;3243;50.958;7.012;2023-04-21T03:20:44;35.83;;;25.37;;
6420;SDS011;3243;50.958;7.012;2023-04-21T03:23:11;32.13;;;25.47;;
6420;SDS011;3243;50.958;7.012;2023-04-21T03:25:37;34.80;;;25.67;;
6420;SDS011;3243;50.958;7.012;2023-04-21T03:28:04;33.80;;;26.20;;
6420;SDS011;3243;50.958;7.012;2023-04-21T03:30:31;34.43;;;26.30;;
6420;SDS011;3243;50.958;7.012;2023-04-21T03:32:58;36.67;;;26.97;;
6420;SDS011;3243;50.958;7.012;2023-04-21T03:35:25;31.63;;;23.90;;
6420;SDS011;3243;50.958;7.012;2023-04-21T03:37:52;37.97;;;26.93;;
6420;SDS011;3243;50.958;7.012;2023-04-21T03:40:19;36.00;;;26.60;;
6420;SDS011;3243;50.958;7.012;2023-04-21T03:42:45;36.43;;;25.83;;
6420;SDS011;3243;50.958;7.012;2023-04-21T03:45:12;40.27;;;28.13;;
6420;SDS011;3243;50.958;7.012;2023-04-21T03:47:39;42.17;;;28.33;;
6420;SDS011;3243;50.958;7.012;2023-04-21T03:50:06;32.03;;;24.07;;
6420;SDS011;3243;50.958;7.012;2023-04-21T03:52:33;37.30;;;27.13;;
6420;SDS011;3243;50.958;7.012;2023-04-21T03:55:00;37.80;;;26.90;;
6420;SDS011;3243;50.958;7.012;2023-04-21T03:57:26;35.17;;;25.10;;
6420;SDS011;3243;50.958;7.012;2023-04-21T03:59:53;37.10;;;26.73;;
6420;SDS011;3243;50.958;7.012;2023-04-21T04:02:20;32.30;;;24.30;;
6420;SDS011;3243;50.958;7.012;2023-04-21T04:04:48;33.83;;;24.10;;
6420;SDS011;3243;50.958;7.012;2023-04-21T04:07:15;39.17;;;26.40;;
6420;SDS011;3243;50.958;7.012;2023-04-21T04:09:42;33.60;;;24.63;;
6420;SDS011;3243;50.958;7.012;2023-04-21T04:12:09;31.70;;;23.50;;
6420;SDS011;3243;50.958;7.012;2023-04-21T04:14:37;33.23;;;25.60;;
6420;SDS011;3243;50.958;7.012;2023-04-21T04:17:04;33.70;;;23.63;;
6420;SDS011;3243;50.958;7.012;2023-04-21T04:19:31;31.60;;;24.03;;
6420;SDS011;3243;50.958;7.012;2023-04-21T04:21:58;33.47;;;25.17;;
6420;SDS011;3243;50.958;7.012;2023-04-21T04:24:26;33.30;;;24.47;;
6420;SDS011;3243;50.958;7.012;2023-04-21T04:26:53;36.30;;;25.47;;
6420;SDS011;3243;50.958;7.012;2023-04-21T04:29:20;32.63;;;24.27;;
6420;SDS011;3243;50.958;7.012;2023-04-21T04:31:48;35.67;;;24.23;;
6420;SDS011;3243;50.958;7.012;2023-04-21T04:34:16;33.40;;;24.80;;
6420;SDS011;3243;50.958;7.012;2023-04-21T04:36:43;34.60;;;25.73;;
6420;SDS011;3243;50.958;7.012;2023-04-21T04:39:10;34.93;;;24.40;;
6420;SDS011;3243;50.958;7.012;2023-04-21T04:41:37;33.23;;;25.83;;
6420;SDS011;3243;50.958;7.012;2023-04-21T04:44:04;30.73;;;23.53;;
6420;SDS011;3243;50.958;7.012;2023-04-21T04:46:31;41.00;;;29.03;;
6420;SDS011;3243;50.958;7.012;2023-04-21T04:49:02;38.00;;;27.10;;
6420;SDS011;3243;50.958;7.012;2023-04-21T04:51:28;39.37;;;27.73;;
6420;SDS011;3243;50.958;7.012;2023-04-21T04:53:55;36.43;;;27.10;;
6420;SDS011;3243;50.958;7.012;2023-04-21T04:56:22;44.07;;;29.80;;
6420;SDS011;3243;50.958;7.012;2023-04-21T04:58:48;33.20;;;25.57;;
6420;SDS011;3243;50.958;7.012;2023-04-21T05:01:16;33.47;;;25.30;;
6420;SDS011;3243;50.958;7.012;2023-04-21T05:03:43;37.93;;;27.53;;
6420;SDS011;3243;50.958;7.012;2023-04-21T05:06:11;36.37;;;26.00;;
6420;SDS011;3243;50.958;7.012;2023-04-21T05:08:39;39.83;;;27.97;;
6420;SDS011;3243;50.958;7.012;2023-04-21T05:11:06;33.20;;;25.63;;
6420;SDS011;3243;50.958;7.012;2023-04-21T05:13:33;35.07;;;25.77;;
6420;SDS011;3243;50.958;7.012;2023-04-21T05:16:04;33.73;;;25.10;;
6420;SDS011;3243;50.958;7.012;2023-04-21T05:18:31;35.20;;;26.43;;
6420;SDS011;3243;50.958;7.012;2023-04-21T05:20:58;34.07;;;26.53;;
6420;SDS011;3243;50.958;7.012;2023-04-21T05:23:24;32.57;;;24.67;;
6420;SDS011;3243;50.958;7.012;2023-04-21T05:25:51;36.50;;;26.43;;
6420;SDS011;3243;50.958;7.012;2023-04-21T05:28:18;29.57;;;22.80;;
6420;SDS011;3243;50.958;7.012;2023-04-21T05:30:45;30.47;;;23.33;;
6420;SDS011;3243;50.958;7.012;2023-04-21T05:33:11;30.03;;;23.37;;
6420;SDS011;3243;50.958;7.012;2023-04-21T05:35:38;31.87;;;24.60;;
6420;SDS011;3243;50.958;7.012;2023-04-21T05:38:05;42.13;;;28.03;;
6420;SDS011;3243;50.958;7.012;2023-04-21T05:40:32;34.67;;;25.57;;
6420;SDS011;3243;50.958;7.012;2023-04-21T05:42:59;33.70;;;25.83;;
6420;SDS011;3243;50.958;7.012;2023-04-21T05:45:25;33.10;;;24.73;;
6420;SDS011;3243;50.958;7.012;2023-04-21T05:47:52;33.47;;;24.77;;
6420;SDS011;3243;50.958;7.012;2023-04-21T05:50:19;31.83;;;24.03;;
6420;SDS011;3243;50.958;7.012;2023-04-21T05:52:46;32.53;;;23.57;;
6420;SDS011;3243;50.958;7.012;2023-04-21T05:55:12;34.30;;;25.50;;
6420;SDS011;3243;50.958;7.012;2023-04-21T05:57:39;30.27;;;23.70;;
6420;SDS011;3243;50.958;7.012;2023-04-21T06:00:06;28.50;;;23.03;;
6420;SDS011;3243;50.958;7.012;2023-04-21T06:02:33;29.37;;;23.57;;
6420;SDS011;3243;50.958;7.012;2023-04-21T06:05:00;32.07;;;24.93;;
6420;SDS011;3243;50.958;7.012;2023-04-21T06:07:27;33.63;;;25.33;;
6420;SDS011;3243;50.958;7.012;2023-04-21T06:09:54;32.43;;;24.50;;
6420;SDS011;3243;50.958;7.012;2023-04-21T06:12:22;36.57;;;25.23;;
6420;SDS011;3243;50.958;7.012;2023-04-21T06:14:49;29.77;;;22.70;;
6420;SDS011;3243;50.958;7.012;2023-04-21T06:17:16;30.50;;;23.50;;
6420;SDS011;3243;50.958;7.012;2023-04-21T06:19:43;31.93;;;23.87;;
6420;SDS011;3243;50.958;7.012;2023-04-21T06:22:10;31.90;;;23.47;;
6420;SDS011;3243;50.958;7.012;2023-04-21T06:24:37;31.60;;;24.43;;
6420;SDS011;3243;50.958;7.012;2023-04-21T06:27:08;29.90;;;23.80;;
6420;SDS011;3243;50.958;7.012;2023-04-21T06:29:36;30.73;;;23.43;;
6420;SDS011;3243;50.958;7.012;2023-04-21T06:32:03;33.63;;;24.50;;
6420;SDS011;3243;50.958;7.012;2023-04-21T06:34:30;28.73;;;22.50;;
6420;SDS011;3243;50.958;7.012;2023-04-21T06:36:57;28.47;;;21.87;;
6420;SDS011;3243;50.958;7.012;2023-04-21T06:39:24;29.80;;;21.30;;
6420;SDS011;3243;50.958;7.012;2023-04-21T06:41:51;27.30;;;21.53;;
6420;SDS011;3243;50.958;7.012;2023-04-21T06:44:18;24.13;;;20.13;;
6420;SDS011;3243;50.958;7.012;2023-04-21T06:46:46;26.77;;;20.37;;
6420;SDS011;3243;50.958;7.012;2023-04-21T06:49:13;27.03;;;20.70;;
6420;SDS011;3243;50.958;7.012;2023-04-21T06:51:39;26.47;;;20.30;;
6420;SDS011;3243;50.958;7.012;2023-04-21T06:54:06;28.60;;;20.53;;
6420;SDS011;3243;50.958;7.012;2023-04-21T06:56:33;27.20;;;20.13;;
6420;SDS011;3243;50.958;7.012;2023-04-21T06:59:00;27.20;;;20.83;;
6420;SDS011;3243;50.958;7.012;2023-04-21T07:01:27;26.90;;;21.17;;
6420;SDS011;3243;50.958;7.012;2023-04-21T07:03:54;29.13;;;22.00;;
6420;SDS011;3243;50.958;7.012;2023-04-21T07:06:20;27.93;;;20.23;;
6420;SDS011;3243;50.958;7.012;2023-04-21T07:08:47;27.17;;;20.83;;
6420;SDS011;3243;50.958;7.012;2023-04-21T07:11:14;25.17;;;20.23;;
6420;SDS011;3243;50.958;7.012;2023-04-21T07:13:41;24.27;;;19.70;;
6420;SDS011;3243;50.958;7.012;2023-04-21T07:16:08;23.93;;;18.80;;
6420;SDS011;3243;50.958;7.012;2023-04-21T07:18:35;23.60;;;18.57;;
6420;SDS011;3243;50.958;7.012;2023-04-21T07:21:04;22.60;;;18.73;;
6420;SDS011;3243;50.958;7.012;2023-04-21T07:23:31;23.73;;;19.37;;
6420;SDS011;3243;50.958;7.012;2023-04-21T07:25:58;25.77;;;19.97;;
6420;SDS011;3243;50.958;7.012;2023-04-21T07:28:25;25.83;;;19.37;;
6420;SDS011;3243;50.958;7.012;2023-04-21T07:30:51;27.00;;;18.67;;
6420;SDS011;3243;50.958;7.012;2023-04-21T07:33:18;26.57;;;20.30;;
6420;SDS011;3243;50.958;7.012;2023-04-21T07:35:45;23.33;;;18.57;;
6420;SDS011;3243;50.958;7.012;2023-04-21T07:38:12;26.10;;;18.83;;
6420;SDS011;3243;50.958;7.012;2023-04-21T07:40:39;24.33;;;18.00;;
6420;SDS011;3243;50.958;7.012;2023-04-21T07:43:06;22.77;;;17.83;;
6420;SDS011;3243;50.958;7.012;2023-04-21T07:45:32;23.53;;;17.87;;
6420;SDS011;3243;50.958;7.012;2023-04-21T07:47:59;21.77;;;17.33;;
6420;SDS011;3243;50.958;7.012;2023-04-21T07:50:26;20.33;;;16.97;;
6420;SDS011;3243;50.958;7.012;2023-04-21T07:52:53;22.60;;;17.40;;
6420;SDS011;3243;50.958;7.012;2023-04-21T07:55:20;20.57;;;17.33;;
6420;SDS011;3243;50.958;7.012;2023-04-21T07:57:47;19.50;;;16.10;;
6420;SDS011;3243;50.958;7.012;2023-04-21T08:00:14;21.67;;;16.77;;
6420;SDS011;3243;50.958;7.012;2023-04-21T08:02:41;21.30;;;16.33;;
6420;SDS011;3243;50.958;7.012;2023-04-21T08:05:08;21.73;;;17.00;;
6420;SDS011;3243;50.958;7.012;2023-04-21T08:07:35;22.97;;;17.87;;
6420;SDS011;3243;50.958;7.012;2023-04-21T08:10:02;22.77;;;18.07;;
6420;SDS011;3243;50.958;7.012;2023-04-21T08:12:29;22.00;;;17.97;;
6420;SDS011;3243;50.958;7.012;2023-04-21T08:14:56;20.03;;;16.23;;
6420;SDS011;3243;50.958;7.012;2023-04-21T08:17:23;23.30;;;18.13;;
6420;SDS011;3243;50.958;7.012;2023-04-21T08:19:49;20.60;;;16.63;;
6420;SDS011;3243;50.958;7.012;2023-04-21T08:22:17;22.63;;;16.97;;
6420;SDS011;3243;50.958;7.012;2023-04-21T08:24:44;21.80;;;17.00;;
6420;SDS011;3243;50.958;7.012;2023-04-21T08:27:10;22.53;;;17.63;;
6420;SDS011;3243;50.958;7.012;2023-04-21T08:29:37;21.70;;;17.43;;
6420;SDS011;3243;50.958;7.012;2023-04-21T08:32:04;20.23;;;16.80;;
6420;SDS011;3243;50.958;7.012;2023-04-21T08:34:31;21.10;;;17.50;;
6420;SDS011;3243;50.958;7.012;2023-04-21T08:36:58;21.63;;;17.47;;
6420;SDS011;3243;50.958;7.012;2023-04-21T08:39:24;20.23;;;16.60;;
6420;SDS011;3243;50.958;7.012;2023-04-21T08:41:52;21.53;;;17.87;;
6420;SDS011;3243;50.958;7.012;2023-04-21T08:44:19;22.77;;;17.60;;
6420;SDS011;3243;50.958;7.012;2023-04-21T08:46:49;20.53;;;16.00;;
6420;SDS011;3243;50.958;7.012;2023-04-21T08:49:17;22.50;;;17.23;;
6420;SDS011;3243;50.958;7.012;2023-04-21T08:51:46;19.67;;;15.90;;
6420;SDS011;3243;50.958;7.012;2023-04-21T08:54:13;20.97;;;17.20;;
6420;SDS011;3243;50.958;7.012;2023-04-21T08:56:40;19.90;;;16.17;;
6420;SDS011;3243;50.958;7.012;2023-04-21T08:59:07;18.33;;;15.70;;
6420;SDS011;3243;50.958;7.012;2023-04-21T09:01:54;20.87;;;17.10;;
6420;SDS011;3243;50.958;7.012;2023-04-21T09:04:32;20.43;;;15.53;;
6420;SDS011;3243;50.958;7.012;2023-04-21T09:06:59;19.77;;;15.90;;
6420;SDS011;3243;50.958;7.012;2023-04-21T09:09:26;19.50;;;15.90;;
6420;SDS011;3243;50.958;7.012;2023-04-21T09:11:56;19.63;;;16.33;;
6420;SDS011;3243;50.958;7.012;2023-04-21T09:14:28;20.20;;;16.17;;
6420;SDS011;3243;50.958;7.012;2023-04-21T09:16:58;18.17;;;14.93;;
6420;SDS011;3243;50.958;7.012;2023-04-21T09:19:26;22.23;;;17.90;;
6420;SDS011;3243;50.958;7.012;2023-04-21T09:21:54;21.53;;;16.73;;
6420;SDS011;3243;50.958;7.012;2023-04-21T09:24:21;20.90;;;16.47;;
6420;SDS011;3243;50.958;7.012;2023-04-21T09:26:51;19.43;;;15.40;;
6420;SDS011;3243;50.958;7.012;2023-04-21T09:29:22;19.93;;;16.37;;
6420;SDS011;3243;50.958;7.012;2023-04-21T09:31:50;21.57;;;17.47;;
6420;SDS011;3243;50.958;7.012;2023-04-21T09:34:24;19.77;;;16.17;;
6420;SDS011;3243;50.958;7.012;2023-04-21T09:36:58;21.13;;;16.60;;
6420;SDS011;3243;50.958;7.012;2023-04-21T09:39:29;21.93;;;17.07;;
6420;SDS011;3243;50.958;7.012;2023-04-21T09:42:17;19.93;;;16.23;;
6420;SDS011;3243;50.958;7.012;2023-04-21T09:44:44;22.13;;;17.17;;
6420;SDS011;3243;50.958;7.012;2023-04-21T09:47:25;24.13;;;17.53;;
6420;SDS011;3243;50.958;7.012;2023-04-21T09:49:56;23.33;;;16.90;;
6420;SDS011;3243;50.958;7.012;2023-04-21T09:52:25;25.73;;;18.47;;
6420;SDS011;3243;50.958;7.012;2023-04-21T09:54:59;20.87;;;16.40;;
6420;SDS011;3243;50.958;7.012;2023-04-21T09:57:30;20.50;;;15.77;;
6420;SDS011;3243;50.958;7.012;2023-04-21T10:00:01;24.80;;;17.43;;
6420;SDS011;3243;50.958;7.012;2023-04-21T10:02:34;20.97;;;16.80;;
6420;SDS011;3243;50.958;7.012;2023-04-21T10:05:05;23.37;;;16.83;;
6420;SDS011;3243;50.958;7.012;2023-04-21T10:07:33;23.50;;;16.67;;
6420;SDS011;3243;50.958;7.012;2023-04-21T10:10:00;22.17;;;16.17;;
6420;SDS011;3243;50.958;7.012;2023-04-21T10:12:27;22.97;;;16.23;;
6420;SDS011;3243;50.958;7.012;2023-04-21T10:14:55;21.20;;;16.20;;
6420;SDS011;3243;50.958;7.012;2023-04-21T10:17:22;22.37;;;16.87;;
6420;SDS011;3243;50.958;7.012;2023-04-21T10:22:25;21.33;;;15.17;;
6420;SDS011;3243;50.958;7.012;2023-04-21T10:24:57;19.67;;;14.50;;
6420;SDS011;3243;50.958;7.012;2023-04-21T10:30:18;17.50;;;13.30;;
6420;SDS011;3243;50.958;7.012;2023-04-21T10:32:47;18.80;;;13.07;;
6420;SDS011;3243;50.958;7.012;2023-04-21T10:35:36;18.87;;;13.53;;
6420;SDS011;3243;50.958;7.012;2023-04-21T10:38:33;16.17;;;12.27;;
6420;SDS011;3243;50.958;7.012;2023-04-21T10:43:53;17.93;;;13.27;;
6420;SDS011;3243;50.958;7.012;2023-04-21T10:49:27;17.37;;;13.33;;
6420;SDS011;3243;50.958;7.012;2023-04-21T10:54:25;16.37;;;12.90;;
6420;SDS011;3243;50.958;7.012;2023-04-21T10:56:55;16.70;;;12.77;;
6420;SDS011;3243;50.958;7.012;2023-04-21T10:59:24;16.80;;;12.23;;
6420;SDS011;3243;50.958;7.012;2023-04-21T11:01:52;15.77;;;11.87;;
6420;SDS011;3243;50.958;7.012;2023-04-21T11:04:20;16.63;;;11.30;;
6420;SDS011;3243;50.958;7.012;2023-04-21T11:07:03;16.67;;;12.10;;
6420;SDS011;3243;50.958;7.012;2023-04-21T11:09:36;14.13;;;11.43;;
6420;SDS011;3243;50.958;7.012;2023-04-21T11:12:13;13.47;;;10.93;;
6420;SDS011;3243;50.958;7.012;2023-04-21T11:14:42;12.03;;;9.40;;
6420;SDS011;3243;50.958;7.012;2023-04-21T11:17:12;12.00;;;8.57;;
6420;SDS011;3243;50.958;7.012;2023-04-21T11:19:40;14.20;;;9.93;;
6420;SDS011;3243;50.958;7.012;2023-04-21T11:22:10;11.67;;;8.30;;
6420;SDS011;3243;50.958;7.012;2023-04-21T11:24:37;10.80;;;7.97;;
6420;SDS011;3243;50.958;7.012;2023-04-21T11:27:08;9.27;;;7.80;;
6420;SDS011;3243;50.958;7.012;2023-04-21T11:29:37;9.70;;;7.47;;
6420;SDS011;3243;50.958;7.012;2023-04-21T11:32:05;8.43;;;6.87;;
6420;SDS011;3243;50.958;7.012;2023-04-21T11:34:35;8.17;;;6.93;;
6420;SDS011;3243;50.958;7.012;2023-04-21T11:37:03;9.53;;;7.67;;
6420;SDS011;3243;50.958;7.012;2023-04-21T11:39:32;9.37;;;7.50;;
6420;SDS011;3243;50.958;7.012;2023-04-21T11:41:59;8.77;;;7.40;;
6420;SDS011;3243;50.958;7.012;2023-04-21T11:44:37;10.53;;;7.23;;
6420;SDS011;3243;50.958;7.012;2023-04-21T11:49:46;10.40;;;6.70;;
6420;SDS011;3243;50.958;7.012;2023-04-21T11:54:52;9.77;;;7.20;;
6420;SDS011;3243;50.958;7.012;2023-04-21T11:57:21;9.77;;;6.90;;
6420;SDS011;3243;50.958;7.012;2023-04-21T11:59:49;9.20;;;7.03;;
6420;SDS011;3243;50.958;7.012;2023-04-21T12:02:20;9.13;;;6.63;;
6420;SDS011;3243;50.958;7.012;2023-04-21T12:04:56;10.00;;;7.47;;
6420;SDS011;3243;50.958;7.012;2023-04-21T12:07:30;8.47;;;6.83;;
6420;SDS011;3243;50.958;7.012;2023-04-21T12:09:59;9.47;;;7.20;;
6420;SDS011;3243;50.958;7.012;2023-04-21T12:12:27;10.20;;;7.60;;
6420;SDS011;3243;50.958;7.012;2023-04-21T12:14:54;9.27;;;7.23;;
6420;SDS011;3243;50.958;7.012;2023-04-21T12:17:20;8.37;;;7.07;;
6420;SDS011;3243;50.958;7.012;2023-04-21T12:19:47;9.70;;;8.20;;
6420;SDS011;3243;50.958;7.012;2023-04-21T12:22:15;10.13;;;7.83;;
6420;SDS011;3243;50.958;7.012;2023-04-21T12:24:48;8.93;;;7.20;;
6420;SDS011;3243;50.958;7.012;2023-04-21T12:27:14;11.70;;;9.07;;
6420;SDS011;3243;50.958;7.012;2023-04-21T12:29:41;12.53;;;9.20;;
6420;SDS011;3243;50.958;7.012;2023-04-21T12:32:08;10.97;;;9.07;;
6420;SDS011;3243;50.958;7.012;2023-04-21T12:34:35;13.23;;;9.80;;
6420;SDS011;3243;50.958;7.012;2023-04-21T12:37:02;12.17;;;9.03;;
6420;SDS011;3243;50.958;7.012;2023-04-21T12:39:30;11.57;;;9.33;;
6420;SDS011;3243;50.958;7.012;2023-04-21T12:41:57;14.70;;;9.50;;
6420;SDS011;3243;50.958;7.012;2023-04-21T12:44:24;10.70;;;9.03;;
6420;SDS011;3243;50.958;7.012;2023-04-21T12:46:51;13.70;;;9.03;;
6420;SDS011;3243;50.958;7.012;2023-04-21T12:49:18;12.13;;;9.30;;
6420;SDS011;3243;50.958;7.012;2023-04-21T12:51:45;12.43;;;9.17;;
6420;SDS011;3243;50.958;7.012;2023-04-21T12:54:12;13.83;;;10.00;;
6420;SDS011;3243;50.958;7.012;2023-04-21T12:56:40;11.63;;;8.90;;
6420;SDS011;3243;50.958;7.012;2023-04-21T12:59:08;9.70;;;8.27;;
6420;SDS011;3243;50.958;7.012;2023-04-21T13:01:36;8.17;;;7.37;;
6420;SDS011;3243;50.958;7.012;2023-04-21T13:04:04;9.13;;;7.75;;
6420;SDS011;3243;50.958;7.012;2023-04-21T13:06:31;11.23;;;8.10;;
6420;SDS011;3243;50.958;7.012;2023-04-21T13:08:59;10.52;;;8.38;;
6420;SDS011;3243;50.958;7.012;2023-04-21T13:11:26;10.02;;;7.75;;
6420;SDS011;3243;50.958;7.012;2023-04-21T13:13:53;9.13;;;7.60;;
6420;SDS011;3243;50.958;7.012;2023-04-21T13:16:20;9.30;;;7.33;;
6420;SDS011;3243;50.958;7.012;2023-04-21T13:18:47;10.57;;;7.80;;
6420;SDS011;3243;50.958;7.012;2023-04-21T13:21:13;10.23;;;7.77;;
6420;SDS011;3243;50.958;7.012;2023-04-21T13:23:40;9.70;;;7.53;;
6420;SDS011;3243;50.958;7.012;2023-04-21T13:26:07;9.00;;;7.23;;
6420;SDS011;3243;50.958;7.012;2023-04-21T13:28:34;9.57;;;7.47;;
6420;SDS011;3243;50.958;7.012;2023-04-21T13:31:01;9.37;;;7.67;;
6420;SDS011;3243;50.958;7.012;2023-04-21T13:33:28;8.93;;;7.00;;
6420;SDS011;3243;50.958;7.012;2023-04-21T13:35:55;9.10;;;7.20;;
6420;SDS011;3243;50.958;7.012;2023-04-21T13:38:22;9.30;;;7.97;;
6420;SDS011;3243;50.958;7.012;2023-04-21T13:40:49;10.63;;;9.10;;
6420;SDS011;3243;50.958;7.012;2023-04-21T13:43:16;11.70;;;8.80;;
6420;SDS011;3243;50.958;7.012;2023-04-21T13:45:43;10.60;;;8.33;;
6420;SDS011;3243;50.958;7.012;2023-04-21T13:48:11;8.87;;;7.40;;
6420;SDS011;3243;50.958;7.012;2023-04-21T13:50:38;8.60;;;6.70;;
6420;SDS011;3243;50.958;7.012;2023-04-21T13:53:04;6.60;;;5.77;;
6420;SDS011;3243;50.958;7.012;2023-04-21T13:55:31;7.17;;;6.27;;
6420;SDS011;3243;50.958;7.012;2023-04-21T13:57:58;7.77;;;6.57;;
6420;SDS011;3243;50.958;7.012;2023-04-21T14:00:28;8.27;;;6.27;;
6420;SDS011;3243;50.958;7.012;2023-04-21T14:02:54;6.87;;;5.80;;
6420;SDS011;3243;50.958;7.012;2023-04-21T14:05:22;8.80;;;6.73;;
6420;SDS011;3243;50.958;7.012;2023-04-21T14:07:49;9.13;;;6.20;;
6420;SDS011;3243;50.958;7.012;2023-04-21T14:10:16;7.90;;;6.10;;
6420;SDS011;3243;50.958;7.012;2023-04-21T14:12:42;7.10;;;6.40;;
6420;SDS011;3243;50.958;7.012;2023-04-21T14:15:10;7.57;;;6.43;;
6420;SDS011;3243;50.958;7.012;2023-04-21T14:17:38;7.00;;;6.20;;
6420;SDS011;3243;50.958;7.012;2023-04-21T14:20:05;8.57;;;5.87;;
6420;SDS011;3243;50.958;7.012;2023-04-21T14:22:34;7.10;;;5.20;;
6420;SDS011;3243;50.958;7.012;2023-04-21T14:25:01;9.07;;;5.83;;
6420;SDS011;3243;50.958;7.012;2023-04-21T14:27:28;6.90;;;5.65;;
6420;SDS011;3243;50.958;7.012;2023-04-21T14:29:55;7.40;;;5.90;;
6420;SDS011;3243;50.958;7.012;2023-04-21T14:32:24;6.97;;;5.70;;
6420;SDS011;3243;50.958;7.012;2023-04-21T14:34:51;5.97;;;5.15;;
6420;SDS011;3243;50.958;7.012;2023-04-21T14:37:19;5.60;;;4.97;;
6420;SDS011;3243;50.958;7.012;2023-04-21T14:39:46;5.22;;;4.65;;
6420;SDS011;3243;50.958;7.012;2023-04-21T14:42:13;5.95;;;4.90;;
6420;SDS011;3243;50.958;7.012;2023-04-21T14:44:40;4.93;;;4.30;;
6420;SDS011;3243;50.958;7.012;2023-04-21T14:47:07;6.00;;;4.80;;
6420;SDS011;3243;50.958;7.012;2023-04-21T14:49:39;5.57;;;4.45;;
6420;SDS011;3243;50.958;7.012;2023-04-21T14:52:06;6.37;;;4.30;;
6420;SDS011;3243;50.958;7.012;2023-04-21T14:54:33;4.93;;;4.43;;
6420;SDS011;3243;50.958;7.012;2023-04-21T14:57:00;4.97;;;4.22;;
6420;SDS011;3243;50.958;7.012;2023-04-21T14:59:44;5.80;;;4.80;;
6420;SDS011;3243;50.958;7.012;2023-04-21T15:02:12;6.33;;;5.03;;
6420;SDS011;3243;50.958;7.012;2023-04-21T15:04:39;5.32;;;4.65;;
6420;SDS011;3243;50.958;7.012;2023-04-21T15:07:06;4.30;;;3.90;;
6420;SDS011;3243;50.958;7.012;2023-04-21T15:09:33;5.63;;;4.60;;
6420;SDS011;3243;50.958;7.012;2023-04-21T15:12:01;4.65;;;4.25;;
6420;SDS011;3243;50.958;7.012;2023-04-21T15:14:28;4.93;;;4.03;;
6420;SDS011;3243;50.958;7.012;2023-04-21T15:16:55;5.07;;;3.70;;